createdAt,value
2022-10-11T00:01:17.835Z,19.92
2022-10-11T00:03:44.346Z,15.35
2022-10-11T00:06:10.928Z,17.40
2022-10-11T00:08:37.347Z,16.80
2022-10-11T00:11:06.474Z,15.85
2022-10-11T00:13:33.336Z,16.52
2022-10-11T00:15:59.904Z,16.13
2022-10-11T00:18:26.744Z,15.85
2022-10-11T00:21:05.066Z,18.83
2022-10-11T00:23:32.298Z,13.88
2022-10-11T00:26:00.638Z,15.30
2022-10-11T00:28:27.362Z,16.15
2022-10-11T00:30:53.851Z,21.08
2022-10-11T00:33:20.472Z,19.25
2022-10-11T00:35:46.920Z,19.00
2022-10-11T00:38:13.430Z,19.20
2022-10-11T00:40:39.972Z,20.05
2022-10-11T00:43:16.342Z,18.55
2022-10-11T00:45:58.022Z,14.95
2022-10-11T00:50:57.064Z,23.80
2022-10-11T00:53:24.172Z,19.75
2022-10-11T00:56:03.931Z,16.50
2022-10-11T00:58:33.816Z,18.02
2022-10-11T01:01:00.555Z,22.23
2022-10-11T01:03:35.380Z,18.73
2022-10-11T01:06:04.891Z,18.92
2022-10-11T01:08:32.239Z,19.00
2022-10-11T01:10:58.983Z,23.42
2022-10-11T01:13:47.415Z,21.55
2022-10-11T01:16:29.233Z,20.95
2022-10-11T01:19:14.855Z,20.58
2022-10-11T01:22:38.470Z,18.63
2022-10-11T01:25:23.110Z,17.25
2022-10-11T01:28:01.561Z,16.63
2022-10-11T01:30:31.604Z,14.40
2022-10-11T01:33:07.110Z,21.67
2022-10-11T01:35:41.515Z,19.45
2022-10-11T01:38:10.525Z,16.20
2022-10-11T01:40:49.028Z,16.30
2022-10-11T01:43:17.663Z,16.80
2022-10-11T01:45:45.485Z,17.65
2022-10-11T01:48:13.498Z,20.23
2022-10-11T01:50:39.842Z,17.83
2022-10-11T01:53:27.493Z,15.57
2022-10-11T01:56:27.475Z,17.45
2022-10-11T01:59:12.769Z,22.20
2022-10-11T02:01:42.287Z,25.88
2022-10-11T02:04:25.659Z,17.13
2022-10-11T02:06:55.047Z,13.63
2022-10-11T02:09:35.141Z,16.30
2022-10-11T02:12:10.396Z,21.40
2022-10-11T02:14:43.689Z,18.75
2022-10-11T02:17:18.135Z,22.20
2022-10-11T02:19:50.390Z,24.25
2022-10-11T02:22:25.022Z,13.45
2022-10-11T02:24:55.377Z,22.42
2022-10-11T02:27:25.575Z,15.05
2022-10-11T02:29:55.316Z,19.98
2022-10-11T02:32:25.400Z,15.70
2022-10-11T02:34:57.945Z,17.05
2022-10-11T02:37:32.518Z,17.55
2022-10-11T02:40:31.521Z,25.13
2022-10-11T02:43:06.725Z,19.55
2022-10-11T02:45:41.149Z,17.35
2022-10-11T02:48:10.842Z,19.50
2022-10-11T02:50:42.076Z,14.77
2022-10-11T02:53:09.067Z,22.10
2022-10-11T02:55:36.067Z,25.45
2022-10-11T02:58:03.344Z,16.98
2022-10-11T03:00:30.073Z,15.48
2022-10-11T03:02:56.528Z,18.65
2022-10-11T03:05:22.977Z,21.48
2022-10-11T03:07:49.441Z,17.67
2022-10-11T03:10:15.947Z,16.98
2022-10-11T03:12:42.442Z,21.10
2022-10-11T03:15:09.307Z,18.23
2022-10-11T03:17:37.193Z,20.10
2022-10-11T03:20:05.698Z,21.25
2022-10-11T03:22:32.168Z,18.30
2022-10-11T03:25:03.341Z,14.68
2022-10-11T03:27:30.390Z,16.23
2022-10-11T03:29:56.800Z,29.33
2022-10-11T03:32:23.257Z,16.27
2022-10-11T03:34:49.673Z,18.50
2022-10-11T03:37:16.158Z,21.30
2022-10-11T03:39:42.554Z,18.00
2022-10-11T03:42:08.981Z,17.60
2022-10-11T03:44:35.359Z,24.63
2022-10-11T03:47:01.775Z,17.95
2022-10-11T03:49:28.237Z,21.15
2022-10-11T03:51:54.649Z,15.93
2022-10-11T03:54:21.237Z,18.25
2022-10-11T03:56:47.730Z,21.33
2022-10-11T03:59:14.282Z,16.38
2022-10-11T04:01:40.831Z,14.05
2022-10-11T04:04:07.365Z,20.40
2022-10-11T04:06:34.069Z,21.58
2022-10-11T04:09:01.471Z,19.02
2022-10-11T04:11:28.157Z,17.63
2022-10-11T04:13:54.551Z,23.35
2022-10-11T04:16:20.980Z,15.93
2022-10-11T04:18:47.413Z,21.92
2022-10-11T04:21:13.894Z,15.05
2022-10-11T04:23:40.309Z,18.25
2022-10-11T04:26:08.302Z,21.13
2022-10-11T04:28:35.619Z,19.67
2022-10-11T04:31:02.195Z,16.00
2022-10-11T04:33:28.613Z,17.83
2022-10-11T04:35:55.547Z,15.45
2022-10-11T04:38:22.618Z,17.90
2022-10-11T04:40:49.179Z,21.80
2022-10-11T04:43:15.687Z,16.70
2022-10-11T04:45:43.101Z,19.73
2022-10-11T04:48:09.597Z,13.70
2022-10-11T04:50:36.476Z,17.42
2022-10-11T04:53:07.313Z,20.00
2022-10-11T04:55:33.765Z,15.95
2022-10-11T04:58:00.191Z,22.50
2022-10-11T05:00:26.653Z,17.10
2022-10-11T05:02:53.063Z,14.50
2022-10-11T05:05:19.459Z,19.50
2022-10-11T05:07:46.020Z,14.82
2022-10-11T05:10:12.447Z,16.40
2022-10-11T05:12:38.897Z,24.98
2022-10-11T05:15:06.107Z,24.23
2022-10-11T05:17:32.517Z,21.98
2022-10-11T05:19:59.001Z,15.68
2022-10-11T05:22:25.451Z,14.73
2022-10-11T05:24:51.905Z,15.98
2022-10-11T05:27:18.311Z,16.02
2022-10-11T05:29:44.755Z,14.93
2022-10-11T05:32:11.176Z,18.55
2022-10-11T05:34:37.637Z,26.83
2022-10-11T05:37:04.087Z,21.55
2022-10-11T05:39:30.675Z,20.73
2022-10-11T05:41:57.066Z,22.65
2022-10-11T05:44:23.553Z,23.52
2022-10-11T05:46:49.950Z,18.02
2022-10-11T05:49:16.400Z,22.08
2022-10-11T05:51:42.823Z,24.00
2022-10-11T05:54:09.284Z,16.38
2022-10-11T05:56:35.740Z,19.33
2022-10-11T05:59:02.655Z,19.52
2022-10-11T06:01:29.327Z,21.95
2022-10-11T06:03:55.822Z,14.65
2022-10-11T06:06:22.783Z,15.57
2022-10-11T06:08:49.424Z,17.05
2022-10-11T06:11:24.842Z,15.75
2022-10-11T06:13:54.554Z,19.70
2022-10-11T06:16:20.977Z,18.80
2022-10-11T06:18:47.450Z,22.67
2022-10-11T06:21:13.871Z,17.23
2022-10-11T06:23:40.289Z,23.73
2022-10-11T06:26:08.900Z,20.15
2022-10-11T06:28:36.455Z,22.92
2022-10-11T06:31:05.393Z,18.02
2022-10-11T06:33:32.325Z,13.45
2022-10-11T06:36:00.753Z,16.40
2022-10-11T06:38:27.254Z,21.27
2022-10-11T06:40:54.154Z,21.83
2022-10-11T06:43:20.773Z,20.52
2022-10-11T06:45:47.201Z,22.80
2022-10-11T06:48:13.910Z,22.05
2022-10-11T06:50:59.051Z,23.48
2022-10-11T06:53:27.210Z,20.70
2022-10-11T06:55:53.792Z,18.05
2022-10-11T06:58:20.244Z,20.00
2022-10-11T07:00:46.726Z,17.55
2022-10-11T07:03:13.241Z,20.85
2022-10-11T07:05:39.734Z,24.58
2022-10-11T07:08:06.210Z,23.42
2022-10-11T07:10:32.670Z,21.27
2022-10-11T07:12:59.102Z,20.42
2022-10-11T07:15:25.644Z,16.17
2022-10-11T07:17:52.066Z,21.85
2022-10-11T07:20:18.531Z,17.83
2022-10-11T07:22:44.957Z,21.25
2022-10-11T07:25:11.440Z,20.80
2022-10-11T07:27:37.870Z,28.23
2022-10-11T07:30:04.951Z,26.85
2022-10-11T07:32:31.394Z,18.55
2022-10-11T07:34:57.856Z,23.75
2022-10-11T07:37:24.256Z,20.88
2022-10-11T07:39:50.727Z,23.23
2022-10-11T07:42:17.153Z,21.35
2022-10-11T07:44:43.673Z,25.90
2022-10-11T07:47:11.426Z,25.90
2022-10-11T07:49:38.075Z,19.77
2022-10-11T07:52:04.730Z,27.17
2022-10-11T07:54:31.172Z,21.77
2022-10-11T07:56:57.611Z,25.13
2022-10-11T07:59:24.117Z,19.13
2022-10-11T08:01:50.617Z,18.00
2022-10-11T08:04:17.128Z,27.08
2022-10-11T08:06:43.570Z,19.30
2022-10-11T08:09:10.035Z,16.13
2022-10-11T08:11:37.534Z,17.52
2022-10-11T08:14:06.560Z,19.20
2022-10-11T08:16:33.057Z,21.67
2022-10-11T08:18:59.526Z,21.60
2022-10-11T08:21:25.959Z,20.88
2022-10-11T08:23:52.447Z,17.55
2022-10-11T08:26:18.969Z,17.17
2022-10-11T08:28:45.611Z,24.38
2022-10-11T08:31:15.835Z,19.20
2022-10-11T08:33:43.288Z,25.77
2022-10-11T08:36:10.875Z,22.25
2022-10-11T08:38:39.008Z,22.60
2022-10-11T08:41:25.494Z,19.48
2022-10-11T08:44:05.863Z,22.05
2022-10-11T08:46:33.951Z,18.23
2022-10-11T08:49:01.789Z,20.95
2022-10-11T08:51:38.011Z,19.60
2022-10-11T08:54:07.924Z,22.23
2022-10-11T08:56:38.214Z,16.83
2022-10-11T08:59:32.705Z,19.90
2022-10-11T09:02:20.641Z,19.63
2022-10-11T09:04:52.197Z,17.58
2022-10-11T09:10:10.429Z,19.73
2022-10-11T09:12:57.067Z,17.50
2022-10-11T09:15:58.610Z,15.43
2022-10-11T09:18:49.722Z,17.30
2022-10-11T09:21:23.548Z,18.13
2022-10-11T09:24:34.921Z,18.92
2022-10-11T09:27:10.277Z,18.23
2022-10-11T09:29:45.671Z,18.00
2022-10-11T09:32:18.420Z,16.38
2022-10-11T09:34:44.840Z,22.77
2022-10-11T09:37:32.223Z,17.63
2022-10-11T09:40:24.651Z,15.48
2022-10-11T09:42:51.105Z,19.45
2022-10-11T09:45:20.393Z,19.02
2022-10-11T09:47:48.467Z,19.15
2022-10-11T09:50:18.569Z,15.95
2022-10-11T09:52:52.907Z,19.73
2022-10-11T09:55:46.967Z,18.70
2022-10-11T09:58:32.888Z,18.80
2022-10-11T10:01:07.848Z,21.75
2022-10-11T10:03:43.662Z,15.77
2022-10-11T10:06:17.525Z,16.15
2022-10-11T10:08:44.411Z,15.30
2022-10-11T10:11:11.402Z,14.55
2022-10-11T10:13:45.159Z,14.00
2022-10-11T10:16:27.970Z,15.77
2022-10-11T10:18:55.644Z,21.05
2022-10-11T10:21:37.678Z,17.27
2022-10-11T10:24:21.804Z,15.93
2022-10-11T10:27:10.113Z,9.70
2022-10-11T10:29:37.326Z,16.88
2022-10-11T10:32:14.692Z,15.30
2022-10-11T10:34:50.173Z,15.40
2022-10-11T10:37:32.261Z,11.75
2022-10-11T10:40:17.206Z,14.02
2022-10-11T10:42:43.752Z,16.40
2022-10-11T10:45:21.475Z,16.08
2022-10-11T10:48:20.960Z,11.70
2022-10-11T10:50:56.573Z,12.82
2022-10-11T10:53:44.253Z,12.55
2022-10-11T10:56:23.283Z,10.23
2022-10-11T10:59:08.449Z,14.30
2022-10-11T11:01:54.123Z,13.68
2022-10-11T11:04:35.135Z,10.68
2022-10-11T11:07:23.054Z,13.48
2022-10-11T11:09:58.648Z,14.32
2022-10-11T11:12:36.074Z,17.67
2022-10-11T11:15:15.554Z,12.95
2022-10-11T11:17:55.844Z,10.43
2022-10-11T11:20:49.549Z,19.38
2022-10-11T11:23:26.355Z,11.82
2022-10-11T11:25:56.949Z,8.15
2022-10-11T11:28:35.176Z,12.47
2022-10-11T11:31:40.277Z,12.77
2022-10-11T11:34:24.166Z,15.30
2022-10-11T11:37:01.643Z,12.90
2022-10-11T11:39:34.701Z,11.23
2022-10-11T11:42:04.770Z,14.23
2022-10-11T11:44:36.283Z,11.93
2022-10-11T11:47:34.646Z,14.43
2022-10-11T11:50:22.035Z,12.23
2022-10-11T11:52:53.927Z,11.30
2022-10-11T11:55:41.633Z,14.32
2022-10-11T11:58:21.282Z,12.48
2022-10-11T12:01:09.324Z,15.57
2022-10-11T12:03:48.205Z,16.65
2022-10-11T12:06:14.566Z,9.95
2022-10-11T12:08:44.413Z,12.57
2022-10-11T12:11:25.015Z,9.63
2022-10-11T12:13:53.727Z,11.37
2022-10-11T12:16:21.970Z,10.50
2022-10-11T12:18:53.962Z,11.13
2022-10-11T12:21:30.716Z,10.60
2022-10-11T12:24:20.993Z,10.60
2022-10-11T12:26:49.242Z,9.98
2022-10-11T12:29:18.496Z,9.85
2022-10-11T12:31:47.644Z,6.40
2022-10-11T12:34:30.826Z,9.27
2022-10-11T12:36:57.315Z,12.57
2022-10-11T12:39:23.665Z,14.63
2022-10-11T12:41:50.033Z,8.75
2022-10-11T12:44:19.434Z,9.80
2022-10-11T12:46:52.001Z,12.05
2022-10-11T12:49:30.502Z,10.40
2022-10-11T12:52:04.836Z,10.95
2022-10-11T12:54:36.771Z,7.20
2022-10-11T12:57:12.100Z,10.55
2022-10-11T12:59:44.985Z,10.40
2022-10-11T13:02:29.153Z,7.70
2022-10-11T13:05:15.846Z,8.40
2022-10-11T13:07:42.628Z,7.20
2022-10-11T13:10:15.069Z,8.68
2022-10-11T13:12:45.706Z,8.70
2022-10-11T13:15:18.858Z,9.10
2022-10-11T13:17:45.318Z,9.85
2022-10-11T13:20:24.229Z,8.55
2022-10-11T13:22:53.307Z,9.20
2022-10-11T13:25:26.091Z,10.60
2022-10-11T13:27:54.352Z,10.45
2022-10-11T13:30:33.251Z,10.18
2022-10-11T13:33:01.379Z,5.72
2022-10-11T13:35:38.463Z,11.18
2022-10-11T13:38:08.589Z,9.90
2022-10-11T13:40:35.565Z,12.02
2022-10-11T13:43:04.781Z,9.00
2022-10-11T13:45:31.485Z,9.60
2022-10-11T13:47:58.183Z,11.23
2022-10-11T13:50:28.690Z,8.70
2022-10-11T13:53:00.120Z,9.73
2022-10-11T13:55:33.661Z,10.38
2022-10-11T13:58:02.248Z,10.18
2022-10-11T14:00:34.932Z,8.43
2022-10-11T14:03:13.390Z,9.95
2022-10-11T14:05:43.150Z,10.07
2022-10-11T14:08:38.668Z,10.00
2022-10-11T14:11:07.126Z,9.38
2022-10-11T14:13:35.349Z,12.07
2022-10-11T14:16:11.544Z,10.60
2022-10-11T14:19:02.201Z,8.10
2022-10-11T14:21:49.961Z,8.10
2022-10-11T14:24:16.512Z,11.15
2022-10-11T14:26:46.366Z,11.05
2022-10-11T14:29:25.013Z,10.82
2022-10-11T14:31:52.487Z,12.27
2022-10-11T14:34:21.437Z,9.18
2022-10-11T14:36:48.632Z,11.38
2022-10-11T14:39:22.825Z,11.38
2022-10-11T14:41:51.991Z,11.52
2022-10-11T14:44:19.475Z,9.23
2022-10-11T14:46:47.344Z,10.50
2022-10-11T14:49:21.116Z,11.23
2022-10-11T14:51:49.350Z,8.07
2022-10-11T14:54:17.145Z,10.60
2022-10-11T14:56:43.603Z,7.40
2022-10-11T14:59:16.013Z,11.35
2022-10-11T15:01:42.984Z,7.82
2022-10-11T15:04:09.502Z,7.25
2022-10-11T15:06:38.680Z,9.73
2022-10-11T15:09:06.041Z,8.05
2022-10-11T15:11:33.119Z,10.80
2022-10-11T15:13:59.660Z,7.32
2022-10-11T15:16:26.094Z,9.43
2022-10-11T15:18:52.948Z,7.53
2022-10-11T15:21:22.085Z,8.00
2022-10-11T15:23:49.503Z,9.48
2022-10-11T15:26:19.308Z,9.23
2022-10-11T15:28:47.213Z,8.52
2022-10-11T15:31:14.204Z,10.23
2022-10-11T15:33:41.257Z,8.82
2022-10-11T15:36:12.674Z,10.43
2022-10-11T15:38:39.683Z,7.10
2022-10-11T15:41:06.559Z,8.95
2022-10-11T15:43:33.666Z,8.63
2022-10-11T15:46:01.861Z,8.45
2022-10-11T15:48:28.291Z,12.32
2022-10-11T15:50:55.044Z,10.75
2022-10-11T15:53:27.035Z,9.13
2022-10-11T15:55:55.467Z,10.60
2022-10-11T15:58:30.442Z,8.63
2022-10-11T16:00:59.898Z,10.13
2022-10-11T16:03:29.135Z,8.20
2022-10-11T16:05:58.913Z,7.30
2022-10-11T16:08:28.943Z,11.43
2022-10-11T16:10:55.695Z,8.05
2022-10-11T16:13:22.186Z,7.05
2022-10-11T16:15:48.754Z,12.68
2022-10-11T16:18:17.803Z,6.85
2022-10-11T16:20:46.859Z,7.38
2022-10-11T16:23:14.996Z,7.57
2022-10-11T16:25:41.745Z,10.55
2022-10-11T16:28:08.808Z,7.45
2022-10-11T16:30:39.343Z,13.57
2022-10-11T16:33:05.913Z,12.02
2022-10-11T16:35:32.854Z,8.27
2022-10-11T16:38:00.833Z,8.70
2022-10-11T16:40:27.709Z,11.85
2022-10-11T16:42:54.166Z,8.38
2022-10-11T16:45:20.620Z,9.25
2022-10-11T16:47:48.436Z,13.00
2022-10-11T16:50:14.936Z,7.15
2022-10-11T16:52:41.431Z,9.35
2022-10-11T16:55:08.193Z,7.75
2022-10-11T16:57:34.808Z,9.57
2022-10-11T17:00:01.287Z,10.35
2022-10-11T17:02:32.301Z,12.32
2022-10-11T17:04:59.050Z,7.90
2022-10-11T17:07:26.205Z,9.18
2022-10-11T17:09:52.645Z,11.10
2022-10-11T17:12:22.100Z,10.38
2022-10-11T17:14:49.413Z,13.77
2022-10-11T17:17:16.808Z,13.02
2022-10-11T17:19:45.312Z,9.95
2022-10-11T17:22:14.267Z,8.40
2022-10-11T17:24:40.797Z,7.15
2022-10-11T17:27:07.558Z,12.60
2022-10-11T17:29:34.542Z,10.18
2022-10-11T17:32:01.159Z,9.52
2022-10-11T17:34:27.745Z,10.50
2022-10-11T17:36:54.223Z,18.90
2022-10-11T17:39:22.811Z,10.48
2022-10-11T17:41:50.108Z,8.93
2022-10-11T17:44:17.080Z,8.90
2022-10-11T17:46:43.531Z,9.73
2022-10-11T17:49:11.617Z,8.07
2022-10-11T17:51:39.543Z,10.10
2022-10-11T17:54:06.272Z,7.93
2022-10-11T17:56:37.725Z,9.00
2022-10-11T17:59:05.402Z,11.32
2022-10-11T18:01:31.974Z,11.27
2022-10-11T18:04:03.725Z,12.35
2022-10-11T18:06:32.812Z,9.27
2022-10-11T18:09:01.381Z,9.38
2022-10-11T18:11:28.304Z,12.48
2022-10-11T18:13:54.766Z,12.50
2022-10-11T18:16:24.515Z,18.27
2022-10-11T18:18:50.960Z,10.98
2022-10-11T18:21:17.464Z,18.02
2022-10-11T18:23:44.189Z,10.90
2022-10-11T18:26:13.462Z,8.20
2022-10-11T18:28:41.202Z,11.15
2022-10-11T18:31:18.591Z,12.00
2022-10-11T18:33:46.224Z,9.40
2022-10-11T18:36:15.142Z,15.23
2022-10-11T18:38:43.295Z,13.05
2022-10-11T18:41:10.917Z,13.00
2022-10-11T18:43:37.643Z,10.15
2022-10-11T18:46:05.804Z,10.77
2022-10-11T18:48:33.110Z,9.82
2022-10-11T18:51:08.396Z,14.20
2022-10-11T18:53:35.328Z,11.05
2022-10-11T18:56:04.311Z,14.65
2022-10-11T18:58:32.602Z,11.45
2022-10-11T19:01:14.144Z,12.45
2022-10-11T19:06:09.830Z,14.25
2022-10-11T19:08:36.639Z,10.63
2022-10-11T19:11:07.984Z,10.52
2022-10-11T19:13:35.456Z,10.65
2022-10-11T19:16:11.503Z,11.55
2022-10-11T19:18:43.181Z,12.38
2022-10-11T19:21:12.838Z,9.20
2022-10-11T19:23:42.136Z,12.50
2022-10-11T19:26:16.576Z,11.35
2022-10-11T19:28:44.143Z,11.80
2022-10-11T19:31:12.595Z,9.07
2022-10-11T19:33:39.075Z,9.00
2022-10-11T19:36:06.112Z,14.45
2022-10-11T19:38:34.462Z,11.32
2022-10-11T19:41:02.028Z,10.30
2022-10-11T19:43:28.496Z,10.80
2022-10-11T19:46:08.059Z,10.60
2022-10-11T19:48:38.865Z,11.95
2022-10-11T19:51:08.628Z,11.57
2022-10-11T19:53:35.799Z,10.75
2022-10-11T19:56:04.700Z,14.27
2022-10-11T19:58:31.686Z,11.90
2022-10-11T20:01:00.857Z,11.80
2022-10-11T20:03:27.331Z,12.30
2022-10-11T20:05:53.845Z,11.43
2022-10-11T20:08:20.307Z,12.20
2022-10-11T20:10:46.759Z,14.23
2022-10-11T20:13:13.163Z,13.10
2022-10-11T20:15:39.631Z,11.35
2022-10-11T20:18:06.136Z,11.35
2022-10-11T20:20:32.646Z,15.35
2022-10-11T20:22:59.060Z,14.07
2022-10-11T20:25:25.577Z,13.98
2022-10-11T20:27:52.006Z,15.25
2022-10-11T20:30:18.449Z,17.33
2022-10-11T20:32:44.875Z,16.27
2022-10-11T20:35:12.566Z,13.82
2022-10-11T20:37:38.975Z,12.77
2022-10-11T20:40:05.746Z,15.93
2022-10-11T20:42:32.160Z,16.60
2022-10-11T20:44:58.618Z,14.60
2022-10-11T20:47:25.075Z,16.65
2022-10-11T20:49:52.192Z,16.50
2022-10-11T20:52:18.611Z,14.18
2022-10-11T20:54:45.085Z,13.60
2022-10-11T20:57:11.541Z,17.42
2022-10-11T20:59:37.999Z,14.63
2022-10-11T21:02:04.415Z,11.68
2022-10-11T21:04:30.961Z,9.93
2022-10-11T21:06:57.390Z,11.52
2022-10-11T21:09:24.011Z,12.90
2022-10-11T21:11:50.420Z,15.25
2022-10-11T21:14:16.851Z,11.90
2022-10-11T21:16:43.468Z,10.80
2022-10-11T21:19:12.948Z,11.15
2022-10-11T21:21:39.391Z,12.52
2022-10-11T21:24:06.136Z,15.38
2022-10-11T21:26:32.622Z,14.27
2022-10-11T21:28:59.059Z,8.77
2022-10-11T21:31:29.613Z,14.15
2022-10-11T21:33:59.471Z,18.48
2022-10-11T21:36:25.910Z,9.43
2022-10-11T21:38:53.268Z,17.90
2022-10-11T21:41:24.466Z,12.75
2022-10-11T21:43:51.434Z,14.48
2022-10-11T21:46:23.778Z,14.68
2022-10-11T21:48:51.942Z,11.38
2022-10-11T21:51:30.718Z,22.67
2022-10-11T21:53:59.222Z,17.13
2022-10-11T21:56:26.669Z,12.98
2022-10-11T21:58:53.191Z,14.57
2022-10-11T22:01:19.880Z,13.98
2022-10-11T22:03:46.675Z,16.08
2022-10-11T22:06:14.076Z,17.40
2022-10-11T22:08:40.883Z,16.48
2022-10-11T22:11:08.157Z,16.50
2022-10-11T22:13:35.342Z,14.90
2022-10-11T22:16:06.992Z,11.55
2022-10-11T22:18:33.976Z,11.73
2022-10-11T22:21:23.467Z,17.40
2022-10-11T22:23:52.034Z,12.40
2022-10-11T22:26:21.138Z,11.65
2022-10-11T22:28:47.952Z,13.85
2022-10-11T22:31:16.048Z,11.93
2022-10-11T22:33:42.698Z,16.10
2022-10-11T22:36:10.771Z,16.55
2022-10-11T22:38:38.699Z,13.00
2022-10-11T22:41:05.281Z,14.50
2022-10-11T22:43:32.209Z,13.05
2022-10-11T22:45:58.807Z,15.10
2022-10-11T22:48:25.597Z,19.20
2022-10-11T22:50:52.343Z,17.08
2022-10-11T22:53:19.002Z,13.00
2022-10-11T22:55:45.420Z,15.75
2022-10-11T22:58:11.921Z,16.77
2022-10-11T23:00:38.403Z,16.25
2022-10-11T23:03:04.973Z,15.15
2022-10-11T23:05:31.424Z,17.23
2022-10-11T23:07:57.922Z,14.43
2022-10-11T23:10:24.348Z,13.20
2022-10-11T23:12:50.801Z,18.58
2022-10-11T23:15:17.268Z,15.60
2022-10-11T23:17:43.781Z,18.52
2022-10-11T23:20:10.764Z,18.38
2022-10-11T23:22:37.327Z,16.73
2022-10-11T23:25:04.582Z,15.20
2022-10-11T23:27:31.167Z,12.70
2022-10-11T23:29:57.971Z,17.38
2022-10-11T23:32:24.422Z,13.23
2022-10-11T23:34:50.895Z,11.27
2022-10-11T23:37:17.564Z,17.50
2022-10-11T23:39:43.966Z,15.18
2022-10-11T23:42:10.430Z,19.20
2022-10-11T23:44:36.857Z,12.82
2022-10-11T23:47:03.371Z,15.75
2022-10-11T23:49:29.781Z,15.68
2022-10-11T23:51:56.258Z,18.17
2022-10-11T23:54:22.676Z,13.35
2022-10-11T23:56:49.144Z,12.80
2022-10-11T23:59:15.558Z,12.77
